Kailua Kona, HI (96740)

8:37 AM HST on July 26, 2016 (GMT -1000)
Pualani Estates | | Change Station

Elev 420 ft 19.62 °N, 155.97 °W | Updated 10 seconds ago

Partly Cloudy
Partly Cloudy
82.0 °F
Feels Like 87 °F
N
0.0
Wind Variable Wind from SE
Gusts 0.0 mph

Today
High -- | Low -- °F
--% Chance of Precip.
Yesterday
High -- | Low -- °F
Precip. -- in
Pressure 29.97 in
Visibility 10.0 miles
Clouds Few 8000 ft
Heat Index 87 °F
Dew Point 73 °F
Humidity 74%
Rainfall 0.04 in
Snow Depth Not available.
5:58 AM 7:02 PM
Waning Gibbous, 52% visible
METAR PHKO 261753Z 21003KT 10SM FEW080 29/22 A2997 RMK AO2 SLP148 T02890217 10289 20267 53012
Pressure 29.97 in
Visibility 10.0 miles
Clouds Few 8000 ft
Heat Index 87 °F
Dew Point 73 °F
Humidity 74%
Rainfall 0.04 in
Snow Depth Not available.
5:58 AM 7:02 PM
Waning Gibbous, 52% visible
METAR PHKO 261753Z 21003KT 10SM FEW080 29/22 A2997 RMK AO2 SLP148 T02890217 10289 20267 53012

10-Day Weather Forecast

Almanac

Astronomy

Jul. 26, 2016 Rise Set
Actual Time
Civil Twilight
Nautical Twilight
Astronomical Twilight
Moon
Length of Visible Light
Length of Day
Tomorrow will be .
, % of the Moon is Illuminated

Today's Extremes

State Highs State Lows

Community

WunderPhotos

Upload Photos

1,927,651 photos uploaded!

WunderBlog® & News

Nearby

Air Quality

  Air Quality AQ Index Pollutant
Not available.

Snow Depth

Station Depth Elevation

Earthquake Activity

City Distance Mag. Time & Date
Minimum magnitude displayed is 2.5.

Coastal Water Temperatures

Place Temperature

Stations

Nearby Weather Stations

Station Location Temp. Windchill Dew Point Humidity Wind Precip. Elev Updated Type
                   

Watches & Warnings

There are currently no watches in effect.